Time;durP1;ratioP1;P1;durP2;ratioP2;P2;SDS_P1;SDS_P2;PMS_P1;PMS_P2;Temp;Humidity;BMP_temperature;BMP_pressure;BME280_temperature;BME280_humidity;BME280_pressure;Samples;Min_cycle;Max_cycle;Signal;HPM_P1;HPM_P2
2023/10/16 00:00:42;;;;;;;;;1.00;1.00;;;;;25.99;32.68;102174.56;4807866;29;47246;-74
2023/10/16 00:03:08;;;;;;;;;0.00;0.00;;;;;25.89;32.31;102155.28;4808217;29;45416;-74
2023/10/16 00:05:51;;;;;;;;;1.67;0.33;;;;;25.99;32.48;102173.72;4824521;29;45262;-74
2023/10/16 00:08:17;;;;;;;;;0.00;0.00;;;;;25.96;32.38;102169.56;4826439;29;45260;-74
2023/10/16 00:11:05;;;;;;;;;0.00;0.00;;;;;25.98;32.34;102174.72;4825937;29;45302;-75
2023/10/16 00:13:32;;;;;;;;;0.00;0.00;;;;;25.97;32.08;102168.53;4826372;29;45374;-74
2023/10/16 00:16:02;;;;;;;;;0.67;0.67;;;;;25.95;32.15;102162.56;4826448;29;45437;-74
2023/10/16 00:18:33;;;;;;;;;2.00;0.67;;;;;25.94;32.25;102164.38;4826367;29;45433;-74
2023/10/16 00:20:58;;;;;;;;;0.00;0.00;;;;;25.94;32.76;102158.25;4826138;29;46269;-74
2023/10/16 00:23:30;;;;;;;;;0.00;0.00;;;;;25.90;32.41;102148.91;4825867;29;45273;-74
2023/10/16 00:25:56;;;;;;;;;3.00;0.00;;;;;25.93;32.55;102154.75;4825951;29;45309;-74
2023/10/16 00:28:22;;;;;;;;;1.33;0.67;;;;;25.94;32.37;102153.72;4826233;29;45340;-74
2023/10/16 00:30:49;;;;;;;;;0.00;0.00;;;;;25.94;32.34;102144.91;4826017;29;47062;-74
2023/10/16 00:33:14;;;;;;;;;0.00;0.00;;;;;25.94;32.06;102143.06;4826197;29;45321;-74
2023/10/16 00:35:41;;;;;;;;;1.00;1.00;;;;;25.94;32.27;102147.59;4826067;29;45407;-75
2023/10/16 00:38:13;;;;;;;;;0.00;0.00;;;;;25.93;32.36;102145.91;4825718;29;45451;-73
2023/10/16 00:41:28;;;;;;;;;0.00;0.00;;;;;25.93;32.31;102143.25;4823728;29;47057;-74
2023/10/16 00:43:28;;;;;;;;;2.67;1.33;;;;;25.92;32.38;102139.75;4806811;29;45365;-74
2023/10/16 00:46:05;;;;;;;;;0.33;0.33;;;;;25.92;32.61;102145.06;4807735;29;45309;-73
2023/10/16 00:48:31;;;;;;;;;0.00;0.00;;;;;25.91;32.55;102148.75;4807576;29;45444;-74
2023/10/16 00:50:58;;;;;;;;;0.00;0.00;;;;;25.91;32.26;102154.09;4807298;29;48270;-74
2023/10/16 00:53:27;;;;;;;;;0.00;0.00;;;;;25.84;32.49;102137.16;4807076;29;45382;-74
2023/10/16 00:55:55;;;;;;;;;0.00;0.00;;;;;25.77;32.20;102129.00;4807571;29;45344;-74
2023/10/16 00:58:21;;;;;;;;;0.00;0.00;;;;;25.90;32.07;102151.59;4807412;29;45309;-74
2023/10/16 01:00:48;;;;;;;;;0.00;0.00;;;;;25.81;32.11;102138.31;4806969;29;45535;-74
2023/10/16 01:03:14;;;;;;;;;0.00;0.00;;;;;25.85;32.66;102141.44;4807536;29;45422;-74
2023/10/16 01:05:41;;;;;;;;;0.00;0.00;;;;;25.82;31.94;102137.31;4824383;29;45537;-75
2023/10/16 01:08:10;;;;;;;;;0.00;0.00;;;;;25.89;32.05;102144.63;4825178;29;45487;-74
2023/10/16 01:10:40;;;;;;;;;1.00;0.00;;;;;25.89;31.85;102133.94;4825431;29;46949;-74
2023/10/16 01:13:11;;;;;;;;;1.00;0.00;;;;;25.82;31.97;102139.13;4825339;29;45338;-74
2023/10/16 01:15:43;;;;;;;;;0.00;0.00;;;;;25.83;32.21;102132.81;4824408;29;45461;-74
2023/10/16 01:18:18;;;;;;;;;2.00;0.00;;;;;25.88;31.99;102134.94;4825384;29;45300;-74
2023/10/16 01:20:51;;;;;;;;;1.00;1.00;;;;;25.80;31.71;102123.31;4825234;29;46120;-74
2023/10/16 01:23:25;;;;;;;;;1.00;1.00;;;;;25.84;31.93;102135.28;4824856;29;45464;-74
2023/10/16 01:25:51;;;;;;;;;2.00;1.00;;;;;25.74;31.82;102110.69;4825412;29;45361;-75
2023/10/16 01:28:18;;;;;;;;;2.33;1.00;;;;;25.88;31.87;102132.28;4825196;29;45537;-74
2023/10/16 01:30:47;;;;;;;;;0.00;0.00;;;;;25.87;32.12;102130.63;4825033;29;47737;-74
2023/10/16 01:33:19;;;;;;;;;0.00;0.00;;;;;25.72;32.35;102115.34;4825171;29;45437;-74
2023/10/16 01:35:45;;;;;;;;;2.00;0.00;;;;;25.86;32.06;102137.78;4824822;29;45325;-74
2023/10/16 01:38:18;;;;;;;;;1.33;1.33;;;;;25.76;32.43;102113.19;4824209;29;45313;-74
2023/10/16 01:43:25;;;;;;;;;2.33;1.00;;;;;25.84;32.29;102118.47;4806779;29;45444;-74
2023/10/16 01:45:51;;;;;;;;;0.00;0.00;;;;;25.83;32.33;102116.81;4805591;29;45295;-74
2023/10/16 01:48:20;;;;;;;;;0.00;0.00;;;;;25.82;32.38;102121.31;4806792;29;45474;-74
2023/10/16 01:50:49;;;;;;;;;0.00;0.00;;;;;25.78;32.47;102105.84;4806306;29;46203;-74
2023/10/16 01:53:25;;;;;;;;;0.67;0.00;;;;;25.74;32.32;102100.84;4806556;29;45402;-73
2023/10/16 01:55:54;;;;;;;;;0.00;0.00;;;;;25.73;32.22;102095.69;4806721;29;45384;-74
2023/10/16 01:58:21;;;;;;;;;1.00;1.00;;;;;25.81;32.10;102109.00;4806694;29;45495;-73
2023/10/16 02:00:47;;;;;;;;;0.00;0.00;;;;;25.72;31.85;102097.50;4806195;29;46332;-74
2023/10/16 02:03:12;;;;;;;;;0.33;0.33;;;;;25.81;32.15;102109.00;4806405;29;45437;-74
2023/10/16 02:05:41;;;;;;;;;0.33;0.33;;;;;25.80;32.16;102106.50;4823244;29;45420;-74
2023/10/16 02:08:07;;;;;;;;;0.33;0.33;;;;;25.67;32.06;102089.22;4824876;29;45494;-74
2023/10/16 02:10:32;;;;;;;;;1.67;0.33;;;;;25.55;31.99;102071.97;4824634;29;45439;-74
2023/10/16 02:12:58;;;;;;;;;0.00;0.00;;;;;25.80;32.30;102114.50;4824724;29;45392;-74
2023/10/16 02:15:24;;;;;;;;;2.00;1.33;;;;;25.80;32.07;102120.66;4824744;29;45398;-74
2023/10/16 02:17:49;;;;;;;;;0.00;0.00;;;;;25.79;32.39;102113.66;4824850;29;45395;-75
2023/10/16 02:20:17;;;;;;;;;2.00;1.00;;;;;25.68;31.88;102093.53;4824329;29;45374;-74
2023/10/16 02:22:43;;;;;;;;;0.00;0.00;;;;;25.73;31.86;102104.53;4824620;29;45294;-75
2023/10/16 02:25:11;;;;;;;;;0.67;0.67;;;;;25.78;31.95;102109.34;4824416;29;45420;-74
2023/10/16 02:27:36;;;;;;;;;1.00;0.00;;;;;25.70;31.88;102099.53;4824469;29;45588;-74
2023/10/16 02:30:28;;;;;;;;;0.67;0.67;;;;;25.77;31.87;102107.66;4824353;29;46270;-74
2023/10/16 02:32:59;;;;;;;;;0.67;0.67;;;;;25.66;31.52;102087.53;4824415;29;45372;-74
2023/10/16 02:35:25;;;;;;;;;2.67;0.67;;;;;25.73;31.99;102098.34;4824173;29;45404;-74
2023/10/16 02:37:53;;;;;;;;;1.00;1.00;;;;;25.72;31.66;102086.00;4824387;29;45550;-74
2023/10/16 02:40:20;;;;;;;;;0.00;0.00;;;;;25.77;31.71;102102.34;4824449;29;46182;-73
2023/10/16 02:42:51;;;;;;;;;0.00;0.00;;;;;25.78;31.68;102093.34;4806160;29;45410;-74
2023/10/16 02:45:26;;;;;;;;;1.33;0.00;;;;;25.66;31.79;102079.53;4806225;29;45335;-74
2023/10/16 02:47:53;;;;;;;;;1.00;1.00;;;;;25.77;31.46;102099.69;4805955;29;45466;-74
2023/10/16 02:50:21;;;;;;;;;1.00;1.00;;;;;25.77;31.85;102098.84;4808556;29;45595;-73
2023/10/16 02:52:50;;;;;;;;;0.00;0.00;;;;;25.72;31.94;102089.50;4809608;29;45323;-74
2023/10/16 02:55:15;;;;;;;;;1.00;1.00;;;;;25.76;31.76;102089.19;4809287;29;45380;-74
2023/10/16 02:57:41;;;;;;;;;0.00;0.00;;;;;25.69;31.80;102076.53;4808996;29;45216;-74
2023/10/16 03:00:35;;;;;;;;;0.00;0.00;;;;;25.65;31.87;102069.06;4808926;29;45979;-74
2023/10/16 03:03:00;;;;;;;;;0.00;0.00;;;;;25.73;31.92;102080.56;4808763;29;45440;-73
2023/10/16 03:05:28;;;;;;;;;1.00;1.00;;;;;25.66;32.08;102066.22;4824400;29;45361;-74
2023/10/16 03:07:54;;;;;;;;;1.00;1.00;;;;;25.65;31.79;102058.41;4827424;29;45489;-74
2023/10/16 03:10:23;;;;;;;;;0.00;0.00;;;;;25.70;32.12;102067.53;4827093;29;46374;-74
2023/10/16 03:12:59;;;;;;;;;2.00;0.33;;;;;25.57;32.17;102046.78;4827058;29;45370;-74
2023/10/16 03:15:28;;;;;;;;;0.00;0.00;;;;;25.72;31.83;102070.84;4827339;29;45347;-74
2023/10/16 03:17:54;;;;;;;;;0.67;0.67;;;;;25.71;32.30;102071.03;4826835;29;45297;-75
2023/10/16 03:20:22;;;;;;;;;0.00;0.00;;;;;25.67;31.82;102059.91;4827080;29;46001;-75
2023/10/16 03:22:50;;;;;;;;;1.00;1.00;;;;;25.70;32.07;102064.88;4827063;29;45303;-74
2023/10/16 03:25:30;;;;;;;;;0.00;0.00;;;;;25.42;32.00;102012.09;4827112;29;45465;-75
2023/10/16 03:27:55;;;;;;;;;2.00;2.00;;;;;25.61;32.12;102045.44;4827019;29;45302;-74
2023/10/16 03:30:25;;;;;;;;;0.00;0.00;;;;;25.69;32.30;102049.88;4826896;29;45895;-74
2023/10/16 03:32:52;;;;;;;;;1.00;0.33;;;;;25.70;31.87;102048.06;4826455;29;45371;-74
2023/10/16 03:35:25;;;;;;;;;0.33;0.00;;;;;25.62;32.03;102035.59;4827017;29;45339;-74
2023/10/16 03:37:51;;;;;;;;;0.00;0.00;;;;;25.65;31.71;102032.59;4826866;29;45301;-74
2023/10/16 03:40:19;;;;;;;;;0.00;0.00;;;;;25.69;31.88;102041.06;4826275;29;46408;-74
2023/10/16 03:42:45;;;;;;;;;0.00;0.00;;;;;25.63;31.38;102026.63;4808844;29;45358;-74
2023/10/16 03:45:13;;;;;;;;;0.67;0.67;;;;;25.68;31.64;102037.56;4808553;29;45246;-74
2023/10/16 03:47:38;;;;;;;;;0.67;0.33;;;;;25.68;31.77;102037.56;4808188;29;45378;-74
2023/10/16 03:50:04;;;;;;;;;0.67;0.67;;;;;25.57;31.69;102019.31;4808260;29;47105;-74
2023/10/16 03:52:30;;;;;;;;;0.00;0.00;;;;;25.63;31.94;102035.41;4808390;29;45447;-74
2023/10/16 03:54:55;;;;;;;;;1.00;0.67;;;;;25.68;31.62;102053.56;4808401;29;45376;-74
2023/10/16 03:57:20;;;;;;;;;1.00;1.00;;;;;25.52;31.49;102023.34;4808468;29;45290;-74
2023/10/16 03:59:47;;;;;;;;;0.00;0.00;;;;;25.40;31.60;102012.25;4807928;29;46300;-73
2023/10/16 04:02:19;;;;;;;;;2.00;0.00;;;;;25.67;31.67;102040.41;4807426;29;45297;-74
2023/10/16 04:04:46;;;;;;;;;0.00;0.00;;;;;25.57;31.56;102035.31;4818267;29;45373;-74
2023/10/16 04:07:14;;;;;;;;;2.00;1.00;;;;;25.67;31.75;102048.41;4826468;29;45391;-74
2023/10/16 04:09:48;;;;;;;;;1.00;0.00;;;;;25.67;31.88;102043.06;4826470;29;45359;-74
2023/10/16 04:12:17;;;;;;;;;0.67;0.00;;;;;25.63;31.63;102031.94;4826314;29;45505;-74
2023/10/16 04:14:50;;;;;;;;;0.00;0.00;;;;;25.38;31.72;101995.59;4826391;29;45414;-74
2023/10/16 04:17:17;;;;;;;;;0.67;0.67;;;;;25.63;31.74;102029.28;4826104;29;45252;-74
2023/10/16 04:20:42;;;;;;;;;0.00;0.00;;;;;25.57;32.08;102019.31;4826310;29;47076;-74
2023/10/16 04:22:44;;;;;;;;;0.00;0.00;;;;;25.57;31.63;102013.97;4825921;29;45374;-74
2023/10/16 04:25:19;;;;;;;;;0.00;0.00;;;;;25.62;31.75;102025.78;4826277;29;45444;-74
2023/10/16 04:27:45;;;;;;;;;0.00;0.00;;;;;25.65;31.67;102029.94;4826206;29;45373;-74
2023/10/16 04:30:32;;;;;;;;;0.67;0.00;;;;;25.47;31.94;101995.56;4825608;29;46224;-74
2023/10/16 04:32:56;;;;;;;;;0.00;0.00;;;;;25.62;31.76;102028.44;4826097;29;45568;-73
2023/10/16 04:38:27;;;;;;;;;2.00;2.00;;;;;25.63;31.79;102026.63;4826078;29;45340;-74
2023/10/16 04:43:49;;;;;;;;;1.67;0.00;;;;;25.56;32.04;102021.13;4807491;29;45355;-74
2023/10/16 04:46:20;;;;;;;;;0.33;0.33;;;;;25.58;31.77;102020.97;4807279;29;45347;-74
2023/10/16 04:48:51;;;;;;;;;0.00;0.00;;;;;25.58;32.08;102018.31;4807646;29;45391;-74
2023/10/16 04:51:36;;;;;;;;;0.00;0.00;;;;;25.60;31.56;102016.31;4807429;29;46474;-74
2023/10/16 04:54:16;;;;;;;;;0.00;0.00;;;;;25.59;31.74;102011.97;4807302;29;45360;-74
2023/10/16 04:59:58;;;;;;;;;0.00;0.00;;;;;25.53;31.59;102013.50;4804536;29;45528;-74
2023/10/16 05:02:41;;;;;;;;;0.00;0.00;;;;;25.58;31.51;102021.78;4804125;29;45352;-73
2023/10/16 05:07:57;;;;;;;;;0.67;0.00;;;;;25.59;31.43;102015.47;4827997;29;45374;-74
2023/10/16 05:10:51;;;;;;;;;0.00;0.00;;;;;25.59;31.33;102014.63;4822637;29;45435;-74
2023/10/16 05:16:27;;;;;;;;;2.00;0.00;;;;;25.60;32.02;102006.47;4823224;29;45385;-74
2023/10/16 05:18:43;;;;;;;;;0.00;0.00;;;;;25.61;31.74;102015.28;4823135;29;45473;-75
2023/10/16 15:05:15;;;;;;;;;0.00;0.00;;;;;25.80;30.96;101512.91;4878464;29;45495;-80
2023/10/16 15:07:41;;;;;;;;;0.00;0.00;;;;;25.82;30.74;101528.69;4881443;29;45413;-80
2023/10/16 15:10:07;;;;;;;;;0.00;0.00;;;;;25.78;31.18;101492.78;4882275;29;45443;-82
2023/10/16 15:12:33;;;;;;;;;0.00;0.00;;;;;25.76;31.18;101509.00;4883535;29;45388;-80
2023/10/16 15:14:58;;;;;;;;;0.67;0.00;;;;;25.71;31.54;101485.50;4882438;29;47304;-78
2023/10/16 15:17:23;;;;;;;;;0.00;0.00;;;;;25.71;31.44;101490.84;4881147;29;45412;-80
2023/10/16 15:19:49;;;;;;;;;1.00;0.00;;;;;25.74;31.45;101511.81;4874705;29;45312;-84
2023/10/16 15:22:15;;;;;;;;;0.67;0.00;;;;;25.84;31.15;101510.72;4883081;29;45398;-81
2023/10/16 15:24:40;;;;;;;;;0.00;0.00;;;;;25.85;31.24;101483.00;4882797;29;46045;-81
2023/10/16 15:27:06;;;;;;;;;0.00;0.00;;;;;25.80;31.33;101482.75;4883246;29;45425;-80
2023/10/16 15:29:31;;;;;;;;;1.00;1.00;;;;;25.87;31.47;101488.97;4882767;29;45358;-80
2023/10/16 15:31:57;;;;;;;;;1.67;0.67;;;;;25.73;31.62;101472.88;4882977;29;45430;-79
2023/10/16 15:34:22;;;;;;;;;0.00;0.00;;;;;25.88;31.95;101503.13;4882175;29;45723;-79
2023/10/16 15:36:49;;;;;;;;;0.00;0.00;;;;;25.88;31.61;101484.47;4882680;29;45396;-80
2023/10/16 15:39:15;;;;;;;;;0.00;0.00;;;;;25.70;32.05;101459.91;4881830;29;45347;-80
2023/10/16 15:41:44;;;;;;;;;0.00;0.00;;;;;25.87;31.94;101486.31;4882732;29;45385;-75
2023/10/16 15:44:10;;;;;;;;;0.00;0.00;;;;;25.74;32.00;101471.84;4882376;29;47015;-75
2023/10/16 15:46:36;;;;;;;;;1.00;0.00;;;;;25.87;32.00;101475.66;4882499;29;45285;-75
2023/10/16 15:49:01;;;;;;;;;0.00;0.00;;;;;25.73;31.89;101448.03;4882453;29;45424;-75
2023/10/16 15:51:30;;;;;;;;;0.00;0.00;;;;;25.86;31.86;101479.34;4882488;29;45298;-75
2023/10/16 15:53:55;;;;;;;;;0.33;0.00;;;;;25.86;31.98;101474.00;4882067;29;46365;-75
2023/10/16 15:56:24;;;;;;;;;1.00;1.00;;;;;25.74;31.93;101434.53;4881498;29;45320;-75
2023/10/16 15:58:50;;;;;;;;;1.00;1.00;;;;;25.85;32.05;101470.53;4882729;29;45558;-73
2023/10/16 16:01:16;;;;;;;;;0.00;0.00;;;;;25.80;31.82;101430.28;4877752;29;45314;-78
2023/10/16 16:03:42;;;;;;;;;0.00;0.00;;;;;25.77;31.87;101454.66;4874884;29;45403;-77
2023/10/16 16:06:12;;;;;;;;;1.33;0.00;;;;;25.74;31.72;101423.03;4866210;29;45403;-78
2023/10/16 16:08:39;;;;;;;;;2.00;0.00;;;;;25.82;31.87;101427.41;4873176;29;45438;-79
2023/10/16 16:11:05;;;;;;;;;1.00;0.00;;;;;25.80;31.73;101414.28;4874417;29;45258;-80
2023/10/16 16:13:32;;;;;;;;;0.00;0.00;;;;;25.78;31.70;101423.50;4881602;29;46125;-80
2023/10/16 16:16:00;;;;;;;;;0.00;0.00;;;;;25.80;31.74;101422.28;4879749;29;45285;-80
2023/10/16 16:18:26;;;;;;;;;0.00;0.00;;;;;25.70;31.93;101408.44;4877863;29;45373;-79
2023/10/16 16:20:51;;;;;;;;;0.00;0.00;;;;;25.80;31.71;101427.63;4881606;29;45353;-82
2023/10/16 16:23:19;;;;;;;;;1.00;1.00;;;;;25.81;31.76;101415.97;4881392;29;45541;-75
2023/10/16 16:25:44;;;;;;;;;1.33;0.00;;;;;25.82;31.83;101408.75;4881663;29;45390;-80
2023/10/16 16:28:10;;;;;;;;;1.00;0.00;;;;;25.83;31.58;101402.44;4880329;29;45282;-77
2023/10/16 16:30:35;;;;;;;;;1.00;0.00;;;;;25.69;32.06;101369.47;4881535;29;45447;-78
2023/10/16 16:33:00;;;;;;;;;0.00;0.00;;;;;25.82;31.33;101403.44;4880480;29;63998;-79
2023/10/16 16:35:26;;;;;;;;;0.00;0.00;;;;;25.72;31.79;101391.25;4881764;29;45354;-77
2023/10/16 16:37:57;;;;;;;;;0.67;0.67;;;;;25.72;31.00;101393.91;4881926;28;45254;-77
2023/10/16 16:40:23;;;;;;;;;0.00;0.00;;;;;25.77;31.46;101404.00;4882094;29;45476;-80
2023/10/16 16:42:50;;;;;;;;;0.00;0.00;;;;;25.58;31.53;101398.28;4881911;29;46340;-80
2023/10/16 16:45:17;;;;;;;;;0.00;0.00;;;;;25.76;31.49;101422.88;4881996;29;45255;-80
2023/10/16 16:47:43;;;;;;;;;0.00;0.00;;;;;25.71;31.76;101413.56;4881831;29;45239;-80
2023/10/16 16:50:13;;;;;;;;;0.00;0.00;;;;;25.69;31.51;101398.78;4881886;29;45404;-80
2023/10/16 16:52:41;;;;;;;;;0.00;0.00;;;;;25.73;31.51;101400.06;4881856;29;47057;-80
2023/10/16 16:55:08;;;;;;;;;0.00;0.00;;;;;25.68;31.29;101410.47;4881760;29;45336;-79
2023/10/16 16:57:33;;;;;;;;;0.00;0.00;;;;;25.66;31.74;101410.66;4881867;29;45380;-79
2023/10/16 17:00:00;;;;;;;;;2.00;0.67;;;;;25.71;31.58;101424.22;4881958;29;45353;-79
2023/10/16 17:02:25;;;;;;;;;1.00;0.00;;;;;25.67;31.44;101425.63;4881221;29;46263;-80
2023/10/16 17:04:52;;;;;;;;;0.00;0.00;;;;;25.69;31.39;101426.25;4881382;29;45364;-80
2023/10/16 17:07:17;;;;;;;;;0.00;0.00;;;;;25.62;31.65;101417.38;4881518;29;45309;-80
2023/10/16 17:09:42;;;;;;;;;0.00;0.00;;;;;25.51;31.35;101400.06;4881744;29;45228;-80
2023/10/16 17:12:08;;;;;;;;;0.00;0.00;;;;;25.61;31.30;101419.22;4881464;29;45302;-79
2023/10/16 17:14:34;;;;;;;;;0.00;0.00;;;;;25.67;31.11;101433.63;4881221;29;45286;-79
2023/10/16 17:17:00;;;;;;;;;0.00;0.00;;;;;25.67;31.30;101444.28;4881262;29;45273;-80
2023/10/16 17:19:26;;;;;;;;;0.00;0.00;;;;;25.51;31.35;101424.03;4881542;29;45297;-79
2023/10/16 17:21:51;;;;;;;;;0.33;0.33;;;;;25.60;31.43;101440.75;4881248;29;47090;-80
2023/10/16 17:24:18;;;;;;;;;0.00;0.00;;;;;25.53;31.49;101430.00;4881214;29;45341;-80
2023/10/16 17:26:45;;;;;;;;;0.00;0.00;;;;;25.58;31.57;101437.44;4881723;29;45447;-79
2023/10/16 17:29:10;;;;;;;;;0.33;0.33;;;;;25.65;31.12;101442.81;4881501;29;45371;-80
2023/10/16 17:31:35;;;;;;;;;0.00;0.00;;;;;25.65;31.53;101449.00;4880880;29;45397;-79
2023/10/16 17:34:04;;;;;;;;;0.00;0.00;;;;;25.63;31.29;101441.16;4881165;29;45489;-80
2023/10/16 17:36:31;;;;;;;;;0.00;0.00;;;;;25.63;31.59;101451.03;4881323;29;45379;-80
2023/10/16 17:38:58;;;;;;;;;0.00;0.00;;;;;25.39;32.01;101405.91;4882142;29;45434;-79
2023/10/16 17:41:23;;;;;;;;;0.00;0.00;;;;;25.58;31.70;101435.59;4881167;29;46173;-79
2023/10/16 17:43:49;;;;;;;;;0.00;0.00;;;;;25.46;31.58;101424.63;4880978;29;45389;-80
2023/10/16 17:46:14;;;;;;;;;0.00;0.00;;;;;25.61;31.67;101450.38;4880942;29;45341;-80
2023/10/16 17:48:42;;;;;;;;;0.00;0.00;;;;;25.57;31.72;101449.94;4881175;29;45336;-79
2023/10/16 17:51:08;;;;;;;;;1.00;0.00;;;;;25.58;31.69;101443.56;4881076;29;46427;-79
2023/10/16 17:53:34;;;;;;;;;0.33;0.33;;;;;25.41;31.67;101416.38;4880706;29;45296;-79
2023/10/16 17:56:00;;;;;;;;;0.00;0.00;;;;;25.58;31.71;101429.44;4881016;29;45266;-78
2023/10/16 17:58:27;;;;;;;;;0.00;0.00;;;;;25.52;31.24;101423.03;4880865;29;45448;-79
2023/10/16 18:00:54;;;;;;;;;0.00;0.00;;;;;25.58;31.45;101426.78;4880586;29;47118;-80
2023/10/16 18:03:20;;;;;;;;;0.00;0.00;;;;;25.29;31.70;101376.91;4880505;29;45395;-80
2023/10/16 18:05:46;;;;;;;;;0.00;0.00;;;;;25.47;31.67;101412.97;4880817;29;45458;-80
2023/10/16 18:08:11;;;;;;;;;1.00;1.00;;;;;25.47;31.28;101401.47;4880538;29;45683;-81
2023/10/16 18:10:41;;;;;;;;;1.67;0.00;;;;;25.56;31.77;101420.81;4880614;29;46356;-81
2023/10/16 18:13:07;;;;;;;;;0.00;0.00;;;;;25.40;31.71;101396.91;4880914;29;45828;-80
2023/10/16 18:15:33;;;;;;;;;0.67;0.67;;;;;25.56;31.79;101416.31;4880536;29;45432;-79
2023/10/16 18:17:58;;;;;;;;;0.67;0.67;;;;;25.44;31.58;101400.00;4880727;29;45375;-80
2023/10/16 18:20:24;;;;;;;;;0.00;0.00;;;;;25.56;31.57;101418.13;4880604;29;46880;-80
2023/10/16 18:22:51;;;;;;;;;0.67;0.00;;;;;25.38;31.43;101387.44;4880866;29;45462;-79
2023/10/16 18:25:18;;;;;;;;;0.67;0.00;;;;;25.41;31.44;101397.72;4880895;29;45373;-79
2023/10/16 18:27:43;;;;;;;;;0.00;0.00;;;;;25.42;31.32;101398.56;4880869;29;45491;-80
2023/10/16 18:30:09;;;;;;;;;2.00;0.00;;;;;25.39;31.69;101397.94;4880187;29;45216;-80
2023/10/16 18:32:36;;;;;;;;;0.00;0.00;;;;;25.43;31.60;101405.50;4880452;29;45381;-80
2023/10/16 18:35:01;;;;;;;;;0.00;0.00;;;;;25.38;31.55;101409.56;4880627;29;45361;-80
2023/10/16 18:37:27;;;;;;;;;0.00;0.00;;;;;25.54;31.47;101428.16;4880643;29;45270;-79
2023/10/16 18:39:52;;;;;;;;;0.67;0.00;;;;;25.49;31.51;101426.06;4880395;29;45307;-79
2023/10/16 18:42:19;;;;;;;;;1.33;0.00;;;;;25.52;31.48;101425.69;4880632;29;45248;-79
2023/10/16 18:44:45;;;;;;;;;0.00;0.00;;;;;25.43;31.14;101419.66;4880266;29;45384;-79
2023/10/16 18:47:12;;;;;;;;;0.00;0.00;;;;;25.43;31.32;101421.50;4881158;29;45526;-80
2023/10/16 18:49:38;;;;;;;;;0.33;0.33;;;;;25.37;31.34;101420.44;4880995;29;46194;-79
2023/10/16 18:52:05;;;;;;;;;0.33;0.33;;;;;25.31;31.54;101415.84;4880750;29;45439;-79
2023/10/16 18:54:31;;;;;;;;;1.00;1.00;;;;;25.47;31.29;101438.78;4880997;29;45462;-80
2023/10/16 18:56:56;;;;;;;;;0.00;0.00;;;;;25.50;31.76;101454.38;4880528;29;45568;-75
2023/10/16 18:59:22;;;;;;;;;0.00;0.00;;;;;25.48;31.31;101446.56;4879741;29;45311;-76
2023/10/16 19:01:48;;;;;;;;;0.00;0.00;;;;;25.49;31.59;101448.22;4880077;29;45456;-75
2023/10/16 19:04:14;;;;;;;;;0.00;0.00;;;;;25.47;31.37;101452.91;4878742;29;45305;-76
2023/10/16 19:06:40;;;;;;;;;0.00;0.00;;;;;25.42;31.05;101435.84;4879908;29;45495;-76
2023/10/16 19:09:05;;;;;;;;;1.00;1.00;;;;;25.46;31.63;101445.09;4879845;29;45380;-76
2023/10/16 19:11:34;;;;;;;;;0.00;0.00;;;;;25.47;31.34;101442.25;4879564;29;45238;-77
2023/10/16 19:13:59;;;;;;;;;0.33;0.33;;;;;25.41;31.57;101445.66;4879702;29;45330;-77
2023/10/16 19:16:25;;;;;;;;;0.00;0.00;;;;;25.37;31.63;101429.22;4880001;29;45437;-77
2023/10/16 19:18:52;;;;;;;;;0.67;0.67;;;;;25.40;31.39;101444.00;4879785;29;45255;-76
2023/10/16 19:21:17;;;;;;;;;0.00;0.00;;;;;25.33;31.58;101425.31;4879719;29;45477;-77
2023/10/16 19:23:43;;;;;;;;;0.67;0.00;;;;;25.40;31.43;101438.69;4879795;29;45429;-77
2023/10/16 19:26:12;;;;;;;;;0.67;0.00;;;;;25.11;31.61;101395.97;4879527;29;45408;-76
2023/10/16 19:28:39;;;;;;;;;0.67;0.67;;;;;25.43;31.52;101451.63;4879608;29;46512;-78
2023/10/16 19:31:11;;;;;;;;;0.67;0.00;;;;;25.36;31.33;101437.41;4881133;29;45412;-81
2023/10/16 19:33:38;;;;;;;;;0.67;0.67;;;;;25.22;31.76;101415.97;4881487;29;45460;-79
2023/10/16 19:36:14;;;;;;;;;0.00;0.00;;;;;25.15;31.84;101397.25;4880856;29;45450;-79
2023/10/16 19:38:39;;;;;;;;;0.00;0.00;;;;;25.42;31.94;101425.19;4882326;29;45566;-78
2023/10/16 19:41:06;;;;;;;;;0.00;0.00;;;;;25.11;31.86;101365.88;4882369;29;45432;-79
2023/10/16 19:43:32;;;;;;;;;0.33;0.00;;;;;25.21;32.23;101382.38;4882170;29;45360;-79
2023/10/16 19:45:59;;;;;;;;;0.00;0.00;;;;;25.42;32.07;101418.03;4882585;29;45432;-79
2023/10/16 19:48:25;;;;;;;;;0.00;0.00;;;;;25.42;32.05;101390.56;4881616;29;47322;-79
2023/10/16 19:50:52;;;;;;;;;0.00;0.00;;;;;25.47;31.95;101414.78;4882015;29;45372;-79
2023/10/16 19:53:19;;;;;;;;;0.00;0.00;;;;;25.23;32.46;101376.84;4882154;29;45534;-83
2023/10/16 19:55:46;;;;;;;;;0.33;0.33;;;;;25.37;32.39;101388.47;4882056;29;45382;-83
2023/10/16 19:58:11;;;;;;;;;0.00;0.00;;;;;25.30;32.02;101369.75;4881504;29;46225;-76
2023/10/16 20:00:40;;;;;;;;;0.00;0.00;;;;;25.35;32.20;101385.97;4882197;29;45250;-78
2023/10/16 20:03:09;;;;;;;;;0.00;0.00;;;;;25.40;32.12;101396.91;4882063;29;45342;-78
2023/10/16 20:05:35;;;;;;;;;0.00;0.00;;;;;25.48;32.22;101421.75;4881884;29;45701;-79
2023/10/16 20:08:03;;;;;;;;;0.00;0.00;;;;;25.42;32.55;101393.22;4881994;29;47332;-79
2023/10/16 20:10:33;;;;;;;;;0.33;0.33;;;;;25.25;32.13;101372.97;4881762;29;45468;-80
2023/10/16 20:13:03;;;;;;;;;0.33;0.00;;;;;25.49;32.32;101415.41;4881834;29;45298;-80
2023/10/16 20:15:29;;;;;;;;;0.00;0.00;;;;;25.51;32.69;101400.06;4881838;29;45242;-79
2023/10/16 20:17:55;;;;;;;;;0.00;0.00;;;;;25.42;32.68;101395.88;4881815;29;45887;-81
2023/10/16 20:20:24;;;;;;;;;0.00;0.00;;;;;25.52;32.74;101429.19;4881541;29;45495;-81
2023/10/16 20:23:03;;;;;;;;;0.00;0.00;;;;;25.48;32.36;101389.78;4882810;29;45343;-76
2023/10/16 20:25:33;;;;;;;;;0.00;0.00;;;;;25.50;32.23;101387.78;4869724;29;45538;-75
2023/10/16 20:28:00;;;;;;;;;0.67;0.67;;;;;25.52;32.20;101380.41;4880820;29;46488;-74
2023/10/16 20:30:26;;;;;;;;;0.33;0.33;;;;;25.52;32.09;101399.06;4881521;29;45371;-74
2023/10/16 20:32:52;;;;;;;;;0.00;0.00;;;;;25.52;32.47;101372.41;4881068;29;45469;-74
2023/10/16 20:35:18;;;;;;;;;1.00;1.00;;;;;25.55;32.71;101374.72;4881466;29;45324;-75
2023/10/16 20:37:45;;;;;;;;;0.00;0.00;;;;;25.56;32.76;101378.16;4881228;29;46087;-77
2023/10/16 20:40:12;;;;;;;;;1.00;1.00;;;;;25.57;33.13;101396.66;4880108;29;45391;-78
2023/10/16 20:42:39;;;;;;;;;1.67;0.00;;;;;25.59;33.13;101389.28;4880447;29;45395;-76
2023/10/16 20:45:06;;;;;;;;;0.00;0.00;;;;;25.61;33.03;101383.75;4881476;29;45261;-76
2023/10/16 20:47:32;;;;;;;;;0.67;0.67;;;;;25.62;33.12;101391.56;4880928;29;46177;-75
2023/10/16 20:49:57;;;;;;;;;1.00;1.00;;;;;25.61;33.41;101383.75;4881116;29;45345;-75
2023/10/16 20:52:22;;;;;;;;;0.00;0.00;;;;;25.63;33.36;101384.41;4881038;29;45343;-77
2023/10/16 20:54:48;;;;;;;;;1.67;0.00;;;;;25.58;33.15;101390.28;4881158;29;45289;-78
2023/10/16 20:57:14;;;;;;;;;1.00;0.00;;;;;25.64;33.40;101386.03;4880523;29;45981;-75
2023/10/16 20:59:40;;;;;;;;;0.00;0.00;;;;;25.57;33.24;101390.50;4881245;29;45411;-74
2023/10/16 21:02:06;;;;;;;;;2.00;1.00;;;;;25.51;33.15;101374.25;4881150;29;45427;-76
2023/10/16 21:04:32;;;;;;;;;0.67;0.67;;;;;25.47;33.24;101370.34;4880757;29;45626;-75
2023/10/16 21:06:57;;;;;;;;;0.33;0.33;;;;;25.31;33.48;101330.63;4880933;29;45868;-79
2023/10/16 21:09:22;;;;;;;;;0.00;0.00;;;;;25.50;33.00;101390.44;4880695;29;45458;-84
2023/10/16 21:11:48;;;;;;;;;0.00;0.00;;;;;25.32;32.77;101337.63;4880960;29;45434;-77
2023/10/16 21:14:14;;;;;;;;;0.00;0.00;;;;;25.61;33.07;101376.59;4880917;29;45422;-80
2023/10/16 21:16:39;;;;;;;;;0.00;0.00;;;;;25.60;33.46;101379.47;4877113;29;46219;-84
2023/10/16 21:19:04;;;;;;;;;1.00;1.00;;;;;25.61;33.15;101378.41;4881716;29;45412;-80
2023/10/16 21:21:32;;;;;;;;;0.00;0.00;;;;;25.57;33.41;101359.34;4877431;29;45444;-84
2023/10/16 21:23:57;;;;;;;;;1.00;1.00;;;;;25.53;33.54;101352.75;4875217;29;45431;-80
2023/10/16 21:26:23;;;;;;;;;0.67;0.00;;;;;25.64;33.50;101378.03;4879647;29;47225;-78
2023/10/16 21:28:48;;;;;;;;;2.67;0.00;;;;;25.50;33.29;101335.28;4871961;29;45375;-81